Time;durP1;ratioP1;P1;durP2;ratioP2;P2;SDS_P1;SDS_P2;PMS_P1;PMS_P2;Temp;Humidity;BMP_temperature;BMP_pressure;BME280_temperature;BME280_humidity;BME280_pressure;Samples;Min_cycle;Max_cycle;Signal;HPM_P1;HPM_P2
2022/08/21 00:00:27;;;;;;;6.30;3.60;;;;;;;;;;5050386;28;20112;-61
2022/08/21 00:02:55;;;;;;;6.97;4.15;;;;;;;;;;5049384;28;20415;-60
2022/08/21 00:05:22;;;;;;;6.10;4.18;;;;;;;;;;5050929;28;20124;-62
2022/08/21 00:07:48;;;;;;;6.53;4.03;;;;;;;;;;5050149;28;20036;-61
2022/08/21 00:10:15;;;;;;;4.88;3.88;;;;;;;;;;5050558;28;20108;-62
2022/08/21 00:12:41;;;;;;;6.45;3.53;;;;;;;;;;5047684;28;20521;-61
2022/08/21 00:15:08;;;;;;;5.68;4.03;;;;;;;;;;5047838;28;20461;-61
2022/08/21 00:17:34;;;;;;;6.53;4.20;;;;;;;;;;5047512;28;20037;-61
2022/08/21 00:20:00;;;;;;;4.80;3.70;;;;;;;;;;5042880;28;20061;-61
2022/08/21 00:22:26;;;;;;;5.10;4.22;;;;;;;;;;5043160;28;20488;-62
2022/08/21 00:24:52;;;;;;;5.13;3.88;;;;;;;;;;5051147;28;20020;-61
2022/08/21 00:27:18;;;;;;;6.45;3.90;;;;;;;;;;5049438;28;20476;-61
2022/08/21 00:29:44;;;;;;;5.00;3.85;;;;;;;;;;5049400;28;20028;-61
2022/08/21 00:32:10;;;;;;;4.20;3.80;;;;;;;;;;5050280;28;20041;-62
2022/08/21 00:34:36;;;;;;;5.55;4.70;;;;;;;;;;5049390;28;20486;-62
2022/08/21 00:37:02;;;;;;;5.45;4.30;;;;;;;;;;5048365;28;20404;-61
2022/08/21 00:39:28;;;;;;;6.03;4.47;;;;;;;;;;5050865;28;20156;-62
2022/08/21 00:41:54;;;;;;;6.63;4.13;;;;;;;;;;5049659;28;20035;-61
2022/08/21 00:44:20;;;;;;;5.65;4.65;;;;;;;;;;5050608;28;20111;-61
2022/08/21 00:46:46;;;;;;;5.65;4.03;;;;;;;;;;5050006;28;20063;-62
2022/08/21 00:49:13;;;;;;;9.32;4.65;;;;;;;;;;5050227;28;20048;-62
2022/08/21 00:51:50;;;;;;;5.45;4.63;;;;;;;;;;5045703;28;20036;-61
2022/08/21 00:54:17;;;;;;;7.72;4.82;;;;;;;;;;5047489;28;20115;-62
2022/08/21 00:56:43;;;;;;;7.00;4.85;;;;;;;;;;5051076;28;20021;-62
2022/08/21 00:59:10;;;;;;;6.15;4.53;;;;;;;;;;5050428;28;20056;-61
2022/08/21 01:01:36;;;;;;;5.80;4.30;;;;;;;;;;5047334;28;20029;-60
2022/08/21 01:04:02;;;;;;;5.95;4.55;;;;;;;;;;5049829;28;20036;-59
2022/08/21 01:06:28;;;;;;;6.10;4.38;;;;;;;;;;5050034;28;20029;-59
2022/08/21 01:08:55;;;;;;;7.88;4.85;;;;;;;;;;5048734;28;20048;-59
2022/08/21 01:11:21;;;;;;;4.95;4.07;;;;;;;;;;5048541;28;20025;-59
2022/08/21 01:13:48;;;;;;;6.95;4.10;;;;;;;;;;5050438;28;20033;-59
2022/08/21 01:16:16;;;;;;;5.35;4.70;;;;;;;;;;5049139;28;20108;-59
2022/08/21 01:18:42;;;;;;;8.15;4.13;;;;;;;;;;5048134;28;20119;-60
2022/08/21 01:21:13;;;;;;;11.88;5.50;;;;;;;;;;5048401;28;20029;-59
2022/08/21 01:23:40;;;;;;;7.85;4.55;;;;;;;;;;5050031;28;20039;-59
2022/08/21 01:26:06;;;;;;;8.73;4.95;;;;;;;;;;5049390;28;20031;-59
2022/08/21 01:28:39;;;;;;;5.95;4.82;;;;;;;;;;5050295;28;20148;-59
2022/08/21 01:31:07;;;;;;;6.30;4.57;;;;;;;;;;5048851;28;20033;-60
2022/08/21 01:33:33;;;;;;;5.20;4.07;;;;;;;;;;5049745;28;20033;-60
2022/08/21 01:35:59;;;;;;;10.15;4.57;;;;;;;;;;5050189;28;20033;-60
2022/08/21 01:38:25;;;;;;;6.97;4.72;;;;;;;;;;5048767;28;20033;-59
2022/08/21 01:40:51;;;;;;;6.55;4.55;;;;;;;;;;5048713;28;20106;-59
2022/08/21 01:43:17;;;;;;;7.78;4.82;;;;;;;;;;5042440;28;20063;-59
2022/08/21 01:45:43;;;;;;;5.55;4.80;;;;;;;;;;5051084;28;20036;-60
2022/08/21 01:48:09;;;;;;;7.00;5.03;;;;;;;;;;5054088;28;20449;-59
2022/08/21 01:50:35;;;;;;;5.80;4.30;;;;;;;;;;5052260;28;20104;-60
2022/08/21 01:53:01;;;;;;;4.97;4.22;;;;;;;;;;5052641;28;20025;-59
2022/08/21 01:55:27;;;;;;;6.65;4.85;;;;;;;;;;5051353;28;20114;-59
2022/08/21 01:57:53;;;;;;;6.75;4.90;;;;;;;;;;5054049;28;20515;-59
2022/08/21 02:00:22;;;;;;;6.63;4.28;;;;;;;;;;5048574;28;20771;-59
2022/08/21 02:02:49;;;;;;;6.95;4.63;;;;;;;;;;5052294;28;20033;-59
2022/08/21 02:05:15;;;;;;;5.85;4.20;;;;;;;;;;5052073;28;20472;-59
2022/08/21 02:07:42;;;;;;;8.68;5.18;;;;;;;;;;5049006;28;20083;-59
2022/08/21 02:10:10;;;;;;;7.93;5.15;;;;;;;;;;5050961;28;20033;-59
2022/08/21 02:12:36;;;;;;;7.35;3.97;;;;;;;;;;5044687;28;20037;-59
2022/08/21 02:15:03;;;;;;;6.22;4.35;;;;;;;;;;5053215;28;20420;-59
2022/08/21 02:17:37;;;;;;;6.70;4.65;;;;;;;;;;5053329;28;20029;-58
2022/08/21 02:20:03;;;;;;;4.85;4.05;;;;;;;;;;5050239;28;20087;-59
2022/08/21 02:22:29;;;;;;;6.43;4.85;;;;;;;;;;5045723;28;20069;-59
2022/08/21 02:24:55;;;;;;;6.50;4.28;;;;;;;;;;5052805;28;20385;-60
2022/08/21 02:27:21;;;;;;;5.40;4.25;;;;;;;;;;5051123;28;20033;-59
2022/08/21 02:29:47;;;;;;;6.18;4.60;;;;;;;;;;5051123;28;20108;-59
2022/08/21 02:32:13;;;;;;;7.03;4.38;;;;;;;;;;5052695;28;20478;-59
2022/08/21 02:34:40;;;;;;;8.05;4.03;;;;;;;;;;5052706;28;20033;-59
2022/08/21 02:37:06;;;;;;;6.53;4.82;;;;;;;;;;5050742;28;20021;-59
2022/08/21 02:39:32;;;;;;;7.63;4.47;;;;;;;;;;5052907;28;20212;-59
2022/08/21 02:41:58;;;;;;;6.55;4.40;;;;;;;;;;5052665;28;20032;-59
2022/08/21 02:44:24;;;;;;;6.50;4.05;;;;;;;;;;5050890;28;20032;-59
2022/08/21 02:46:50;;;;;;;6.15;4.15;;;;;;;;;;5042331;28;20463;-59
2022/08/21 02:49:16;;;;;;;11.35;4.50;;;;;;;;;;5053358;28;20261;-59
2022/08/21 02:51:42;;;;;;;6.68;3.95;;;;;;;;;;5051146;28;20033;-59
2022/08/21 02:54:08;;;;;;;5.65;4.15;;;;;;;;;;5052357;28;20059;-59
2022/08/21 02:56:34;;;;;;;9.38;4.75;;;;;;;;;;5052744;28;20016;-59
2022/08/21 02:59:00;;;;;;;9.00;4.28;;;;;;;;;;5052027;28;20357;-60
2022/08/21 03:01:26;;;;;;;8.30;4.32;;;;;;;;;;5050229;28;20037;-59
2022/08/21 03:03:53;;;;;;;5.22;3.95;;;;;;;;;;5050557;28;20120;-59
2022/08/21 03:06:20;;;;;;;13.45;4.47;;;;;;;;;;5052597;28;20044;-59
2022/08/21 03:08:46;;;;;;;6.53;3.70;;;;;;;;;;5044726;28;20053;-59
2022/08/21 03:11:13;;;;;;;7.03;4.15;;;;;;;;;;5051227;28;20127;-59
2022/08/21 03:13:39;;;;;;;9.15;4.20;;;;;;;;;;5047173;28;20053;-59
2022/08/21 03:16:06;;;;;;;4.53;3.53;;;;;;;;;;5046950;28;20114;-59
2022/08/21 03:18:32;;;;;;;6.32;3.53;;;;;;;;;;5051148;28;20032;-59
2022/08/21 03:20:58;;;;;;;5.28;3.67;;;;;;;;;;5049729;28;20056;-59
2022/08/21 03:23:24;;;;;;;5.82;3.92;;;;;;;;;;5051920;28;20108;-59
2022/08/21 03:25:50;;;;;;;6.05;3.85;;;;;;;;;;5052129;28;20064;-59
2022/08/21 03:28:20;;;;;;;6.57;4.03;;;;;;;;;;5052298;28;20035;-59
2022/08/21 03:30:48;;;;;;;6.53;3.85;;;;;;;;;;5050810;28;20791;-59
2022/08/21 03:33:14;;;;;;;5.38;3.60;;;;;;;;;;5050582;28;20033;-59
2022/08/21 03:35:42;;;;;;;6.85;3.45;;;;;;;;;;5047739;28;20032;-59
2022/08/21 03:38:08;;;;;;;6.97;3.33;;;;;;;;;;5051721;28;20084;-59
2022/08/21 03:40:34;;;;;;;8.43;3.40;;;;;;;;;;5051082;28;20025;-59
2022/08/21 03:43:00;;;;;;;8.75;3.20;;;;;;;;;;5052343;28;20036;-59
2022/08/21 03:45:27;;;;;;;5.10;3.60;;;;;;;;;;5049120;28;20033;-59
2022/08/21 03:47:53;;;;;;;4.75;3.40;;;;;;;;;;5051069;28;20033;-59
2022/08/21 03:50:19;;;;;;;5.72;3.40;;;;;;;;;;5049885;28;20082;-59
2022/08/21 03:52:45;;;;;;;5.05;3.55;;;;;;;;;;5051958;28;20397;-59
2022/08/21 03:55:11;;;;;;;6.50;3.40;;;;;;;;;;5051142;28;20028;-59
2022/08/21 03:57:37;;;;;;;6.63;3.45;;;;;;;;;;5050858;28;20108;-59
2022/08/21 04:00:04;;;;;;;4.72;3.08;;;;;;;;;;5046514;28;20029;-59
2022/08/21 04:02:30;;;;;;;8.98;3.95;;;;;;;;;;5038703;28;20056;-59
2022/08/21 04:04:56;;;;;;;5.43;2.80;;;;;;;;;;5050870;28;20039;-59
2022/08/21 04:07:22;;;;;;;4.97;3.20;;;;;;;;;;5049796;28;20033;-59
2022/08/21 04:09:48;;;;;;;9.23;3.10;;;;;;;;;;5046254;28;20118;-59
2022/08/21 04:12:14;;;;;;;9.73;3.10;;;;;;;;;;5051499;28;20037;-59
2022/08/21 04:14:41;;;;;;;7.03;3.20;;;;;;;;;;5051185;28;20074;-59
2022/08/21 04:17:07;;;;;;;3.28;2.45;;;;;;;;;;5049791;28;20040;-59
2022/08/21 04:19:33;;;;;;;6.63;2.90;;;;;;;;;;5051066;28;20021;-59
2022/08/21 04:21:59;;;;;;;4.93;2.38;;;;;;;;;;5046046;28;20029;-60
2022/08/21 04:24:25;;;;;;;6.43;2.80;;;;;;;;;;5050398;28;20116;-59
2022/08/21 04:26:51;;;;;;;7.95;3.20;;;;;;;;;;5050355;28;20443;-59
2022/08/21 04:29:17;;;;;;;6.55;2.95;;;;;;;;;;5050315;28;20025;-59
2022/08/21 04:31:43;;;;;;;5.22;2.75;;;;;;;;;;5049937;28;20104;-59
2022/08/21 04:34:09;;;;;;;11.98;3.45;;;;;;;;;;5048817;28;20553;-59
2022/08/21 04:36:35;;;;;;;8.77;3.15;;;;;;;;;;5051427;28;20086;-59
2022/08/21 04:39:01;;;;;;;5.13;2.80;;;;;;;;;;5050329;28;20029;-60
2022/08/21 04:41:28;;;;;;;10.00;3.13;;;;;;;;;;5047090;28;20029;-59
2022/08/21 04:43:55;;;;;;;5.07;2.53;;;;;;;;;;5050913;28;20025;-59
2022/08/21 04:46:21;;;;;;;9.27;2.97;;;;;;;;;;5050973;28;20059;-59
2022/08/21 04:48:48;;;;;;;6.55;3.33;;;;;;;;;;5050463;28;20053;-59
2022/08/21 04:51:24;;;;;;;8.25;2.80;;;;;;;;;;5049482;28;20021;-59
2022/08/21 04:53:52;;;;;;;6.18;2.60;;;;;;;;;;5041795;28;20039;-60
2022/08/21 04:56:23;;;;;;;4.75;2.58;;;;;;;;;;5048402;28;20384;-59
2022/08/21 04:58:49;;;;;;;4.53;2.20;;;;;;;;;;5048927;28;20029;-59
2022/08/21 05:01:20;;;;;;;6.70;2.50;;;;;;;;;;5048818;28;20025;-59
2022/08/21 05:03:48;;;;;;;8.05;2.53;;;;;;;;;;5050426;28;20047;-58
2022/08/21 05:06:15;;;;;;;7.43;2.50;;;;;;;;;;5044536;28;20108;-59
2022/08/21 05:08:42;;;;;;;4.25;2.17;;;;;;;;;;5049641;28;20049;-59
2022/08/21 05:11:08;;;;;;;4.97;2.60;;;;;;;;;;5048543;28;20025;-59
2022/08/21 05:13:34;;;;;;;9.93;2.50;;;;;;;;;;5046477;28;20033;-59
2022/08/21 05:16:00;;;;;;;5.63;2.70;;;;;;;;;;5048964;28;20025;-59
2022/08/21 05:18:26;;;;;;;6.80;2.22;;;;;;;;;;5049962;28;20044;-59
2022/08/21 05:20:52;;;;;;;9.07;3.10;;;;;;;;;;5048652;28;20029;-60
2022/08/21 05:23:18;;;;;;;5.55;2.33;;;;;;;;;;5047315;28;20021;-59
2022/08/21 05:25:44;;;;;;;5.80;2.50;;;;;;;;;;5042421;28;20025;-60
2022/08/21 05:28:10;;;;;;;9.65;2.58;;;;;;;;;;5045674;28;20408;-59
2022/08/21 05:30:36;;;;;;;8.45;2.17;;;;;;;;;;5049257;28;20025;-59
2022/08/21 05:33:03;;;;;;;6.82;2.50;;;;;;;;;;5048922;28;20106;-59
2022/08/21 05:35:30;;;;;;;6.90;2.17;;;;;;;;;;5048740;28;20088;-59
2022/08/21 05:37:57;;;;;;;5.72;1.95;;;;;;;;;;5048749;28;20565;-59
2022/08/21 05:40:23;;;;;;;5.65;1.85;;;;;;;;;;5048654;28;20078;-59
2022/08/21 05:42:53;;;;;;;4.15;2.20;;;;;;;;;;5048874;28;20357;-59
2022/08/21 05:45:19;;;;;;;5.78;2.17;;;;;;;;;;5042525;28;20534;-59
2022/08/21 05:47:45;;;;;;;5.30;2.20;;;;;;;;;;5049942;28;20109;-59
2022/08/21 05:50:11;;;;;;;10.73;2.58;;;;;;;;;;5049648;28;20040;-59
2022/08/21 05:52:37;;;;;;;5.13;2.15;;;;;;;;;;5050219;28;20040;-59
2022/08/21 05:55:03;;;;;;;7.45;2.20;;;;;;;;;;5046884;28;20021;-59
2022/08/21 05:57:29;;;;;;;6.00;2.20;;;;;;;;;;5049222;28;20159;-59
2022/08/21 05:59:55;;;;;;;4.15;1.90;;;;;;;;;;5047077;28;20520;-59
2022/08/21 06:02:21;;;;;;;6.53;2.28;;;;;;;;;;5050560;28;20033;-59
2022/08/21 06:04:48;;;;;;;4.45;2.30;;;;;;;;;;5048363;28;20194;-60
2022/08/21 06:07:14;;;;;;;5.90;2.00;;;;;;;;;;5048463;28;20092;-59
2022/08/21 06:09:40;;;;;;;4.20;1.83;;;;;;;;;;5045987;28;20052;-59
2022/08/21 06:12:11;;;;;;;8.00;2.05;;;;;;;;;;5047996;28;20396;-59
2022/08/21 06:14:39;;;;;;;7.30;2.30;;;;;;;;;;5049259;28;20641;-59
2022/08/21 06:17:06;;;;;;;4.15;2.05;;;;;;;;;;5048511;28;20029;-59
2022/08/21 06:19:33;;;;;;;8.88;2.30;;;;;;;;;;5050823;28;20028;-58
2022/08/21 06:21:59;;;;;;;5.22;1.85;;;;;;;;;;5048215;28;20040;-59
2022/08/21 06:24:25;;;;;;;7.00;2.00;;;;;;;;;;5047212;28;20032;-59
2022/08/21 06:26:51;;;;;;;6.03;2.03;;;;;;;;;;5048529;28;20380;-60
2022/08/21 06:29:19;;;;;;;9.63;2.22;;;;;;;;;;5047048;28;20038;-59
2022/08/21 06:31:45;;;;;;;4.68;2.20;;;;;;;;;;5047422;28;20086;-60
2022/08/21 06:34:11;;;;;;;8.82;2.30;;;;;;;;;;5047709;28;20104;-59
2022/08/21 06:36:37;;;;;;;4.65;2.67;;;;;;;;;;5047475;28;20040;-59
2022/08/21 06:39:03;;;;;;;6.72;1.83;;;;;;;;;;5044656;28;20072;-59
2022/08/21 06:41:29;;;;;;;8.90;2.10;;;;;;;;;;5043652;28;20041;-59
2022/08/21 06:43:56;;;;;;;4.03;1.75;;;;;;;;;;5053119;28;20039;-59
2022/08/21 06:46:22;;;;;;;6.18;1.48;;;;;;;;;;5052570;28;20052;-59
2022/08/21 06:48:49;;;;;;;7.10;1.80;;;;;;;;;;5053352;28;20500;-60
2022/08/21 06:51:15;;;;;;;5.00;1.83;;;;;;;;;;5050330;28;20041;-59
2022/08/21 06:53:41;;;;;;;8.13;1.63;;;;;;;;;;5049474;28;20033;-59
2022/08/21 06:56:07;;;;;;;3.20;1.35;;;;;;;;;;5048900;28;20029;-59
2022/08/21 06:58:33;;;;;;;4.63;1.80;;;;;;;;;;5043860;28;20026;-59
2022/08/21 07:00:59;;;;;;;5.65;1.70;;;;;;;;;;5044607;28;20028;-60
2022/08/21 07:03:33;;;;;;;4.65;1.48;;;;;;;;;;5043962;28;20481;-59
2022/08/21 07:05:59;;;;;;;5.53;1.42;;;;;;;;;;5044462;28;20055;-59
2022/08/21 07:08:26;;;;;;;6.50;1.70;;;;;;;;;;5048548;28;20496;-60
2022/08/21 07:10:53;;;;;;;7.20;1.48;;;;;;;;;;5052024;28;20056;-60
2022/08/21 07:13:19;;;;;;;5.88;1.65;;;;;;;;;;5052198;28;20382;-61
2022/08/21 07:15:45;;;;;;;9.68;2.30;;;;;;;;;;5050534;28;20044;-59
2022/08/21 07:18:11;;;;;;;8.35;1.63;;;;;;;;;;5051838;28;20361;-59
2022/08/21 07:20:37;;;;;;;3.95;1.15;;;;;;;;;;5050801;28;20032;-59
2022/08/21 07:23:05;;;;;;;8.82;1.45;;;;;;;;;;5050695;28;20043;-60
2022/08/21 07:25:31;;;;;;;6.18;1.10;;;;;;;;;;5047807;28;20039;-60
2022/08/21 07:27:57;;;;;;;3.58;1.05;;;;;;;;;;5045915;28;20037;-59
2022/08/21 07:30:23;;;;;;;7.25;1.27;;;;;;;;;;5046062;28;20041;-60
2022/08/21 07:32:49;;;;;;;4.75;1.15;;;;;;;;;;5046984;28;20086;-60
2022/08/21 07:35:16;;;;;;;5.32;1.60;;;;;;;;;;5048739;28;20024;-59
2022/08/21 07:37:42;;;;;;;3.38;0.82;;;;;;;;;;5049494;28;20028;-59
2022/08/21 07:40:08;;;;;;;5.57;1.10;;;;;;;;;;5042138;28;20017;-60
2022/08/21 07:42:34;;;;;;;7.65;1.38;;;;;;;;;;5049964;28;20078;-60
2022/08/21 07:45:00;;;;;;;3.10;1.20;;;;;;;;;;5049304;28;20482;-60
2022/08/21 07:47:26;;;;;;;5.35;1.52;;;;;;;;;;5049871;28;20036;-60
2022/08/21 07:49:52;;;;;;;7.82;1.92;;;;;;;;;;5051584;28;20044;-59
2022/08/21 07:52:19;;;;;;;3.38;1.60;;;;;;;;;;5042734;28;20468;-60
2022/08/21 07:54:45;;;;;;;6.13;0.95;;;;;;;;;;5049749;28;20499;-60
2022/08/21 07:57:11;;;;;;;14.00;1.20;;;;;;;;;;5045056;28;20033;-60
2022/08/21 07:59:37;;;;;;;4.53;1.05;;;;;;;;;;5050943;28;20032;-60
2022/08/21 08:02:03;;;;;;;2.70;0.93;;;;;;;;;;5049685;28;20063;-59
2022/08/21 08:04:29;;;;;;;5.45;1.00;;;;;;;;;;5049918;28;20024;-60
2022/08/21 08:06:55;;;;;;;6.05;1.33;;;;;;;;;;5051981;28;20029;-60
2022/08/21 08:09:21;;;;;;;6.85;1.38;;;;;;;;;;5048903;28;20033;-58
2022/08/21 08:11:47;;;;;;;6.05;1.17;;;;;;;;;;5048041;28;20063;-60
2022/08/21 08:14:13;;;;;;;4.65;1.20;;;;;;;;;;5050905;28;20028;-59
2022/08/21 08:16:39;;;;;;;2.17;0.70;;;;;;;;;;5049085;28;20364;-60
2022/08/21 08:19:05;;;;;;;3.75;1.05;;;;;;;;;;5050306;28;20029;-59
2022/08/21 08:21:33;;;;;;;5.72;1.30;;;;;;;;;;5047527;28;20071;-59
2022/08/21 08:23:59;;;;;;;3.85;1.35;;;;;;;;;;5049810;28;20107;-59
2022/08/21 08:26:25;;;;;;;5.57;1.20;;;;;;;;;;5046530;28;20053;-59
2022/08/21 08:28:51;;;;;;;4.00;1.20;;;;;;;;;;5042264;28;20044;-59
2022/08/21 08:31:17;;;;;;;4.10;1.13;;;;;;;;;;5050140;28;20036;-59
2022/08/21 08:33:43;;;;;;;6.43;1.10;;;;;;;;;;5050092;28;20059;-60
2022/08/21 08:36:13;;;;;;;4.85;1.02;;;;;;;;;;5048856;28;20104;-59
2022/08/21 08:38:40;;;;;;;4.55;1.00;;;;;;;;;;5049023;28;20025;-59
2022/08/21 08:41:12;;;;;;;4.65;1.40;;;;;;;;;;5049510;28;20029;-60
2022/08/21 08:43:38;;;;;;;9.43;1.40;;;;;;;;;;5045012;28;20044;-59
2022/08/21 08:46:08;;;;;;;5.35;1.40;;;;;;;;;;5048751;28;20036;-59
2022/08/21 08:48:39;;;;;;;3.30;1.33;;;;;;;;;;5045709;28;20136;-58
2022/08/21 08:51:07;;;;;;;3.42;1.30;;;;;;;;;;5048163;28;20029;-60
2022/08/21 08:53:34;;;;;;;8.15;1.33;;;;;;;;;;5053036;28;20057;-60
2022/08/21 08:56:02;;;;;;;8.75;1.33;;;;;;;;;;5047658;28;20029;-60
2022/08/21 08:58:29;;;;;;;5.70;1.65;;;;;;;;;;5049247;28;20045;-58
2022/08/21 09:00:56;;;;;;;4.70;1.20;;;;;;;;;;5048489;28;20040;-58
2022/08/21 09:03:23;;;;;;;4.03;0.93;;;;;;;;;;5046852;28;20039;-59
2022/08/21 09:06:04;;;;;;;4.68;1.60;;;;;;;;;;5044182;28;20021;-59
2022/08/21 09:08:30;;;;;;;6.70;1.88;;;;;;;;;;5048883;28;20128;-59
2022/08/21 09:11:13;;;;;;;4.20;1.00;;;;;;;;;;5048874;28;20029;-58
2022/08/21 09:13:57;;;;;;;5.60;1.33;;;;;;;;;;5046921;28;20029;-58
2022/08/21 09:16:40;;;;;;;3.47;1.17;;;;;;;;;;5043211;28;20068;-59
2022/08/21 09:19:09;;;;;;;5.72;1.23;;;;;;;;;;5043353;28;20107;-59
2022/08/21 09:21:49;;;;;;;4.88;1.48;;;;;;;;;;5041823;28;20028;-59
2022/08/21 09:24:41;;;;;;;5.18;1.27;;;;;;;;;;5040804;28;20032;-59
2022/08/21 09:27:09;;;;;;;6.93;1.60;;;;;;;;;;5038875;28;20076;-59
2022/08/21 09:29:36;;;;;;;3.47;1.27;;;;;;;;;;5045321;28;20021;-59
2022/08/21 09:32:10;;;;;;;2.47;1.00;;;;;;;;;;5047346;28;20048;-59
2022/08/21 09:34:35;;;;;;;5.20;1.50;;;;;;;;;;5039385;28;20021;-58
2022/08/21 09:37:02;;;;;;;3.10;1.33;;;;;;;;;;5050168;28;20033;-60
2022/08/21 09:39:29;;;;;;;4.82;1.10;;;;;;;;;;5044045;28;20663;-60
2022/08/21 09:41:56;;;;;;;4.00;1.15;;;;;;;;;;5047564;28;20584;-60
2022/08/21 09:44:26;;;;;;;4.68;1.00;;;;;;;;;;5045935;28;20044;-59
2022/08/21 09:46:52;;;;;;;4.72;1.25;;;;;;;;;;5038288;28;20084;-60
2022/08/21 09:49:27;;;;;;;5.38;1.40;;;;;;;;;;5044552;28;20033;-58
2022/08/21 09:51:54;;;;;;;4.38;1.27;;;;;;;;;;5042468;28;20028;-60
2022/08/21 09:54:22;;;;;;;5.47;1.42;;;;;;;;;;5043091;28;20029;-59
2022/08/21 09:59:56;;;;;;;4.80;1.10;;;;;;;;;;5045371;28;20035;-59
2022/08/21 10:02:27;;;;;;;5.45;1.33;;;;;;;;;;5039889;28;20028;-60
2022/08/21 10:05:02;;;;;;;8.23;1.40;;;;;;;;;;5049356;28;20033;-59
2022/08/21 10:07:29;;;;;;;6.22;1.08;;;;;;;;;;5045219;28;20037;-60
2022/08/21 10:10:13;;;;;;;5.38;1.02;;;;;;;;;;5048517;28;20033;-59
2022/08/21 10:12:39;;;;;;;5.97;1.10;;;;;;;;;;5045258;28;20496;-59
2022/08/21 10:15:24;;;;;;;7.38;1.15;;;;;;;;;;5052645;28;20033;-59
2022/08/21 10:18:09;;;;;;;5.55;1.40;;;;;;;;;;5053754;28;20229;-59
2022/08/21 10:20:41;;;;;;;3.63;1.15;;;;;;;;;;5051979;28;20021;-59
2022/08/21 10:23:21;;;;;;;4.88;1.13;;;;;;;;;;5052815;28;20511;-59
2022/08/21 10:26:00;;;;;;;7.65;1.40;;;;;;;;;;5046506;28;20024;-59
2022/08/21 10:28:30;;;;;;;5.57;1.42;;;;;;;;;;5044864;28;20031;-59
2022/08/21 10:31:02;;;;;;;9.13;1.63;;;;;;;;;;5047611;28;20095;-60
2022/08/21 10:33:28;;;;;;;3.30;1.17;;;;;;;;;;5053748;28;20112;-59
2022/08/21 10:36:06;;;;;;;2.88;1.10;;;;;;;;;;5052229;28;20125;-59
2022/08/21 10:38:37;;;;;;;2.13;0.90;;;;;;;;;;5056912;28;20021;-59
2022/08/21 10:41:11;;;;;;;3.90;0.88;;;;;;;;;;5050959;28;20040;-59
2022/08/21 10:43:49;;;;;;;6.18;1.17;;;;;;;;;;5051513;28;20025;-58
2022/08/21 10:46:32;;;;;;;6.38;1.38;;;;;;;;;;5057235;28;20033;-59
2022/08/21 10:49:03;;;;;;;3.75;1.13;;;;;;;;;;5057322;28;20025;-59
2022/08/21 10:51:36;;;;;;;3.38;1.08;;;;;;;;;;5052848;28;20529;-59
2022/08/21 10:54:11;;;;;;;7.78;1.27;;;;;;;;;;5049231;28;20025;-59
2022/08/21 10:56:40;;;;;;;7.28;1.15;;;;;;;;;;5049340;28;20040;-59
2022/08/21 10:59:12;;;;;;;3.10;1.00;;;;;;;;;;5051466;28;20025;-60
2022/08/21 11:01:51;;;;;;;5.07;1.10;;;;;;;;;;5043058;28;20033;-58
2022/08/21 11:04:24;;;;;;;3.97;1.35;;;;;;;;;;5056750;28;20028;-58
2022/08/21 11:06:54;;;;;;;3.22;1.00;;;;;;;;;;5048974;28;20025;-59
2022/08/21 11:09:22;;;;;;;4.25;1.20;;;;;;;;;;5064000;28;20055;-58
2022/08/21 11:11:51;;;;;;;5.72;0.98;;;;;;;;;;5054144;28;20107;-59
2022/08/21 11:14:47;;;;;;;4.03;0.90;;;;;;;;;;5041604;28;20033;-60
2022/08/21 11:17:15;;;;;;;5.55;1.42;;;;;;;;;;4960601;28;20031;-60
2022/08/21 11:20:10;;;;;;;9.13;1.20;;;;;;;;;;5044635;28;20045;-60
2022/08/21 11:22:57;;;;;;;4.20;0.80;;;;;;;;;;5030343;28;20037;-59
2022/08/21 11:25:32;;;;;;;3.92;0.80;;;;;;;;;;5044240;28;20036;-59
2022/08/21 11:28:09;;;;;;;3.35;0.82;;;;;;;;;;5042668;28;20053;-59
2022/08/21 11:31:01;;;;;;;4.30;1.05;;;;;;;;;;5038418;28;20109;-59
2022/08/21 11:33:32;;;;;;;2.42;0.80;;;;;;;;;;5042996;28;20060;-59
2022/08/21 11:36:18;;;;;;;2.92;0.80;;;;;;;;;;5041060;28;20063;-59
2022/08/21 11:38:49;;;;;;;2.08;0.60;;;;;;;;;;5039137;28;20174;-59
2022/08/21 11:41:34;;;;;;;2.97;0.88;;;;;;;;;;5048938;28;20062;-59
2022/08/21 11:44:10;;;;;;;6.13;0.90;;;;;;;;;;5042790;28;20135;-60
2022/08/21 11:46:42;;;;;;;3.92;1.35;;;;;;;;;;5046974;28;20462;-60
2022/08/21 11:49:30;;;;;;;5.50;1.17;;;;;;;;;;5046225;28;20471;-59
2022/08/21 11:52:14;;;;;;;4.15;1.05;;;;;;;;;;5049907;28;20533;-59
2022/08/21 11:54:43;;;;;;;4.05;1.13;;;;;;;;;;5047501;28;20025;-59
2022/08/21 11:57:23;;;;;;;6.38;1.00;;;;;;;;;;5056800;28;20463;-58
2022/08/21 11:59:52;;;;;;;5.75;1.27;;;;;;;;;;5060120;28;20032;-57
2022/08/21 12:02:23;;;;;;;3.55;1.00;;;;;;;;;;5050423;28;20044;-59
2022/08/21 12:04:52;;;;;;;5.57;1.15;;;;;;;;;;5063821;28;20104;-59
2022/08/21 12:07:29;;;;;;;2.58;1.15;;;;;;;;;;5048543;28;20024;-59
2022/08/21 12:09:56;;;;;;;5.25;1.05;;;;;;;;;;5052143;28;20124;-60
2022/08/21 12:12:28;;;;;;;5.55;0.93;;;;;;;;;;5048940;28;20037;-59
2022/08/21 12:15:06;;;;;;;4.47;1.10;;;;;;;;;;5050249;28;20040;-59
2022/08/21 12:17:36;;;;;;;3.70;1.40;;;;;;;;;;5042407;28;20393;-57
2022/08/21 12:20:23;;;;;;;3.55;1.20;;;;;;;;;;5050572;28;20037;-59
2022/08/21 12:22:52;;;;;;;4.35;1.00;;;;;;;;;;5052635;28;20499;-59
2022/08/21 12:25:20;;;;;;;4.68;1.13;;;;;;;;;;5048675;28;20052;-60
2022/08/21 12:27:53;;;;;;;5.07;1.02;;;;;;;;;;5045018;28;20037;-58
2022/08/21 12:30:27;;;;;;;3.80;0.90;;;;;;;;;;5050330;28;20028;-58
2022/08/21 12:32:58;;;;;;;3.90;0.70;;;;;;;;;;5063480;28;20033;-57
2022/08/21 12:35:33;;;;;;;7.53;1.08;;;;;;;;;;5052258;28;20017;-58
2022/08/21 12:38:18;;;;;;;3.45;1.00;;;;;;;;;;5064443;28;20029;-58
2022/08/21 12:40:58;;;;;;;4.07;1.15;;;;;;;;;;5061859;28;20111;-58
2022/08/21 12:43:33;;;;;;;3.40;1.10;;;;;;;;;;5054539;28;20115;-58
2022/08/21 12:46:00;;;;;;;5.53;1.05;;;;;;;;;;5051661;28;20032;-58
2022/08/21 12:48:29;;;;;;;4.47;1.00;;;;;;;;;;5051775;28;20041;-57
2022/08/21 12:50:57;;;;;;;4.70;1.13;;;;;;;;;;5050335;28;20511;-58
2022/08/21 12:53:27;;;;;;;3.10;0.80;;;;;;;;;;5056428;28;20055;-58
2022/08/21 12:55:59;;;;;;;4.30;1.02;;;;;;;;;;5054736;28;20356;-58
2022/08/21 12:58:25;;;;;;;7.03;1.10;;;;;;;;;;5051311;28;20028;-58
2022/08/21 13:00:53;;;;;;;6.68;1.20;;;;;;;;;;5071253;28;20032;-58
2022/08/21 13:03:19;;;;;;;3.15;1.08;;;;;;;;;;5071259;28;20433;-58
2022/08/21 13:05:45;;;;;;;4.35;0.90;;;;;;;;;;5054497;28;20100;-57
2022/08/21 13:08:13;;;;;;;10.27;1.42;;;;;;;;;;5048565;28;20408;-58
2022/08/21 13:10:40;;;;;;;3.90;0.93;;;;;;;;;;5051359;28;20029;-58
2022/08/21 13:13:27;;;;;;;2.80;1.10;;;;;;;;;;5050411;28;20120;-58
2022/08/21 13:15:58;;;;;;;6.97;1.20;;;;;;;;;;5048041;28;20021;-58
2022/08/21 13:18:25;;;;;;;5.35;1.00;;;;;;;;;;5047674;28;20032;-57
2022/08/21 13:20:52;;;;;;;4.72;0.95;;;;;;;;;;5059643;28;20249;-58
2022/08/21 13:23:27;;;;;;;5.15;1.02;;;;;;;;;;5058572;28;20530;-58
2022/08/21 13:25:53;;;;;;;3.30;1.00;;;;;;;;;;5051905;28;20449;-58
2022/08/21 13:28:19;;;;;;;5.28;1.50;;;;;;;;;;5053645;28;20072;-58
2022/08/21 13:30:47;;;;;;;7.95;0.95;;;;;;;;;;5062374;28;20434;-58
2022/08/21 13:33:14;;;;;;;5.93;1.17;;;;;;;;;;5042480;28;20025;-58
2022/08/21 13:35:48;;;;;;;5.97;1.20;;;;;;;;;;5051374;28;20021;-58
2022/08/21 13:38:15;;;;;;;5.03;1.00;;;;;;;;;;5049154;28;20427;-58
2022/08/21 13:40:46;;;;;;;4.72;1.00;;;;;;;;;;5050799;28;20021;-60
2022/08/21 13:43:14;;;;;;;4.25;1.10;;;;;;;;;;5059290;28;20057;-59
2022/08/21 13:45:43;;;;;;;5.85;1.02;;;;;;;;;;5061944;28;20033;-59
2022/08/21 13:48:10;;;;;;;3.30;0.98;;;;;;;;;;5051261;28;20036;-58
2022/08/21 13:50:37;;;;;;;4.28;1.23;;;;;;;;;;5061399;28;20465;-58
2022/08/21 13:53:05;;;;;;;4.32;1.30;;;;;;;;;;5065215;28;20116;-59
2022/08/21 13:55:38;;;;;;;7.47;1.33;;;;;;;;;;5050647;28;20035;-58
2022/08/21 13:58:05;;;;;;;2.33;0.80;;;;;;;;;;5053203;28;20039;-58
2022/08/21 14:00:34;;;;;;;6.45;1.98;;;;;;;;;;5045831;28;20051;-58
2022/08/21 14:03:08;;;;;;;4.10;1.00;;;;;;;;;;5051045;28;20103;-59
2022/08/21 14:05:36;;;;;;;5.80;1.20;;;;;;;;;;5053816;28;20107;-58
2022/08/21 14:08:07;;;;;;;7.10;1.42;;;;;;;;;;5054791;28;20033;-58
2022/08/21 14:10:35;;;;;;;3.47;1.25;;;;;;;;;;5054034;28;20086;-58
2022/08/21 14:13:03;;;;;;;3.50;1.20;;;;;;;;;;5065581;28;20029;-58
2022/08/21 14:15:31;;;;;;;3.78;1.08;;;;;;;;;;5052285;28;20044;-59
2022/08/21 14:18:15;;;;;;;3.97;0.90;;;;;;;;;;5053922;28;20049;-58
2022/08/21 14:20:42;;;;;;;6.88;1.13;;;;;;;;;;5055800;28;20024;-59
2022/08/21 14:23:08;;;;;;;5.75;1.42;;;;;;;;;;5054477;28;20055;-58
2022/08/21 14:25:44;;;;;;;4.10;1.23;;;;;;;;;;5060073;28;20029;-58
2022/08/21 14:28:22;;;;;;;6.45;1.30;;;;;;;;;;5050140;28;20040;-58
2022/08/21 14:30:48;;;;;;;5.35;1.30;;;;;;;;;;5053512;28;20033;-59
2022/08/21 14:33:20;;;;;;;6.18;1.70;;;;;;;;;;5050496;28;20025;-59
2022/08/21 14:35:46;;;;;;;4.40;1.13;;;;;;;;;;5050313;28;20040;-58
2022/08/21 14:38:19;;;;;;;2.80;1.00;;;;;;;;;;5053621;28;20033;-59
2022/08/21 14:40:47;;;;;;;4.03;1.27;;;;;;;;;;5050197;28;20025;-58
2022/08/21 14:43:13;;;;;;;5.35;1.30;;;;;;;;;;5053764;28;20033;-59
2022/08/21 14:45:40;;;;;;;5.43;1.45;;;;;;;;;;5053388;28;20021;-58
2022/08/21 14:48:07;;;;;;;6.93;1.70;;;;;;;;;;5054928;28;20100;-58
2022/08/21 14:50:33;;;;;;;4.43;1.40;;;;;;;;;;5054625;28;20029;-58
2022/08/21 14:52:59;;;;;;;11.10;1.50;;;;;;;;;;5052393;28;20026;-59
2022/08/21 14:55:25;;;;;;;8.68;1.38;;;;;;;;;;5052167;28;20040;-58